Time;durP1;ratioP1;P1;durP2;ratioP2;P2;SDS_P1;SDS_P2;PMS_P1;PMS_P2;Temp;Humidity;BMP_temperature;BMP_pressure;BME280_temperature;BME280_humidity;BME280_pressure;Samples;Min_cycle;Max_cycle;Signal;HPM_P1;HPM_P2
2022/12/14 00:01:43;;;;;;;35.55;20.35;;;5.10;99.90;;;;;;4954358;29;20055;-72
2022/12/14 00:04:15;;;;;;;30.40;20.17;;;5.20;99.90;;;;;;4953490;29;20051;-72
2022/12/14 00:06:43;;;;;;;34.40;21.92;;;5.30;99.90;;;;;;4952987;29;20051;-71
2022/12/14 00:09:10;;;;;;;35.08;20.13;;;5.20;99.90;;;;;;4955010;29;20043;-73
2022/12/14 00:11:37;;;;;;;31.98;19.67;;;5.30;99.90;;;;;;4954671;29;20065;-73
2022/12/14 00:14:04;;;;;;;28.75;17.70;;;5.40;99.90;;;;;;4954837;29;20106;-72
2022/12/14 00:16:34;;;;;;;27.17;17.80;;;5.30;99.90;;;;;;4954579;29;20546;-71
2022/12/14 00:19:04;;;;;;;27.70;18.27;;;5.30;99.90;;;;;;4954977;28;20403;-70
2022/12/14 00:21:31;;;;;;;32.45;17.85;;;5.40;99.90;;;;;;4954329;29;20487;-72
2022/12/14 00:23:59;;;;;;;28.63;17.60;;;5.30;99.90;;;;;;4954537;29;20562;-71
2022/12/14 00:26:30;;;;;;;28.73;16.75;;;5.20;99.90;;;;;;4954198;28;20043;-73
2022/12/14 00:28:59;;;;;;;28.98;18.27;;;5.10;99.90;;;;;;4953984;28;20067;-73
2022/12/14 00:31:27;;;;;;;28.20;17.58;;;5.20;99.90;;;;;;4954372;28;20052;-71
2022/12/14 00:33:54;;;;;;;26.40;17.10;;;5.10;99.90;;;;;;4954432;29;20055;-71
2022/12/14 00:36:22;;;;;;;25.90;17.80;;;5.20;99.90;;;;;;4954810;28;20117;-70
2022/12/14 00:38:49;;;;;;;23.33;16.38;;;5.30;99.90;;;;;;4958093;29;20419;-74
2022/12/14 00:41:16;;;;;;;25.15;17.17;;;5.30;99.90;;;;;;4957775;29;20043;-70
2022/12/14 00:43:44;;;;;;;26.20;16.05;;;5.30;99.90;;;;;;4958390;29;20051;-71
2022/12/14 00:46:15;;;;;;;26.02;17.02;;;5.20;99.90;;;;;;4956934;29;20055;-71
2022/12/14 00:48:43;;;;;;;29.05;18.50;;;5.20;99.90;;;;;;4957053;29;20044;-71
2022/12/14 00:51:10;;;;;;;28.85;17.20;;;5.30;99.90;;;;;;4956798;29;20078;-70
2022/12/14 00:53:38;;;;;;;29.20;18.35;;;5.30;99.90;;;;;;4958208;29;20133;-71
2022/12/14 00:56:07;;;;;;;28.87;18.67;;;5.30;99.90;;;;;;4957487;29;20055;-69
2022/12/14 00:58:34;;;;;;;27.42;17.40;;;5.30;99.90;;;;;;4958164;29;20035;-72
2022/12/14 01:01:04;;;;;;;31.52;18.95;;;5.30;99.90;;;;;;4957787;29;20446;-70
2022/12/14 01:03:35;;;;;;;26.63;18.45;;;5.30;99.90;;;;;;4958056;29;20054;-71
2022/12/14 01:06:13;;;;;;;30.13;17.65;;;5.30;99.90;;;;;;4957836;29;20118;-72
2022/12/14 01:08:43;;;;;;;33.50;19.48;;;5.30;99.90;;;;;;4941237;29;20494;-71
2022/12/14 01:11:14;;;;;;;28.67;18.58;;;5.20;99.90;;;;;;4940877;29;20386;-74
2022/12/14 01:13:47;;;;;;;26.55;17.73;;;5.20;99.90;;;;;;4957826;29;20043;-71
2022/12/14 01:16:19;;;;;;;27.80;17.58;;;5.10;99.90;;;;;;4956616;29;20047;-70
2022/12/14 01:18:50;;;;;;;25.55;17.52;;;5.20;99.90;;;;;;4956757;29;20047;-71
2022/12/14 01:21:22;;;;;;;29.67;17.55;;;5.20;99.90;;;;;;4956308;29;20050;-74
2022/12/14 01:23:54;;;;;;;25.70;16.75;;;5.20;99.90;;;;;;4956300;29;20039;-70
2022/12/14 01:26:29;;;;;;;26.13;16.23;;;5.30;99.90;;;;;;4940561;29;20051;-73
2022/12/14 01:29:01;;;;;;;27.17;17.08;;;5.30;99.90;;;;;;4956534;29;20505;-71
2022/12/14 01:31:31;;;;;;;27.77;17.92;;;5.20;99.90;;;;;;4940233;29;20462;-70
2022/12/14 01:33:59;;;;;;;25.58;17.48;;;5.00;99.90;;;;;;4940143;29;20055;-71
2022/12/14 01:36:28;;;;;;;23.70;17.10;;;5.00;99.90;;;;;;4957530;29;20063;-75
2022/12/14 01:38:58;;;;;;;23.40;15.75;;;5.10;99.90;;;;;;4957551;29;20047;-71
2022/12/14 01:41:46;;;;;;;27.52;18.00;;;5.10;99.90;;;;;;4955556;29;20561;-70
2022/12/14 01:44:13;;;;;;;30.75;17.98;;;5.10;99.90;;;;;;4957295;29;20040;-71
2022/12/14 01:46:46;;;;;;;26.38;17.67;;;5.20;99.90;;;;;;4956752;29;20460;-71
2022/12/14 01:49:22;;;;;;;28.25;17.38;;;5.20;99.90;;;;;;4955724;28;20039;-69
2022/12/14 01:51:58;;;;;;;24.70;17.05;;;5.20;99.90;;;;;;4957075;29;20035;-72
2022/12/14 01:54:29;;;;;;;26.02;16.75;;;5.10;99.90;;;;;;4957239;29;20403;-71
2022/12/14 01:56:57;;;;;;;26.65;17.50;;;5.10;99.90;;;;;;4956791;29;20040;-72
2022/12/14 01:59:32;;;;;;;30.17;17.55;;;5.10;99.90;;;;;;4957053;29;20109;-73
2022/12/14 02:02:03;;;;;;;29.63;18.23;;;5.10;99.90;;;;;;4956793;29;20043;-71
2022/12/14 02:04:31;;;;;;;;;;;5.20;99.90;;;;;;4956943;29;20124;-70
2022/12/14 02:06:58;;;;;;;25.42;16.88;;;5.20;99.90;;;;;;4956255;29;19974;-71
2022/12/14 02:09:31;;;;;;;29.23;17.95;;;5.10;99.90;;;;;;4956529;29;20047;-71
2022/12/14 02:12:07;;;;;;;28.27;17.40;;;5.10;99.90;;;;;;4956332;29;20514;-71
2022/12/14 02:14:35;;;;;;;32.85;18.42;;;5.30;99.90;;;;;;4956825;29;20125;-74
2022/12/14 02:17:03;;;;;;;25.05;17.75;;;5.20;99.90;;;;;;4956122;28;20094;-73
2022/12/14 02:19:30;;;;;;;30.80;17.33;;;5.20;99.90;;;;;;4956814;28;20039;-70
2022/12/14 02:22:22;;;;;;;28.17;17.65;;;5.20;99.90;;;;;;4939129;29;20049;-70
2022/12/14 02:25:07;;;;;;;27.42;17.27;;;5.20;99.90;;;;;;4956787;28;20050;-70
2022/12/14 02:27:34;;;;;;;25.52;16.95;;;5.10;99.90;;;;;;4956065;29;20047;-71
2022/12/14 02:30:09;;;;;;;25.20;17.40;;;5.10;99.90;;;;;;4956768;28;20051;-73
2022/12/14 02:32:45;;;;;;;26.63;16.70;;;5.30;99.90;;;;;;4972460;28;20047;-71
2022/12/14 02:35:15;;;;;;;30.17;17.05;;;5.20;99.90;;;;;;4975535;28;20050;-71
2022/12/14 02:37:48;;;;;;;23.20;16.98;;;5.20;99.90;;;;;;4975424;28;20043;-69
2022/12/14 02:40:35;;;;;;;24.15;16.42;;;5.10;99.90;;;;;;4975451;28;20392;-69
2022/12/14 02:43:31;;;;;;;27.05;17.98;;;5.20;99.90;;;;;;4974604;28;20475;-71
2022/12/14 02:46:06;;;;;;;24.90;15.90;;;5.30;99.90;;;;;;4966007;28;20042;-72
2022/12/14 02:48:41;;;;;;;25.85;16.65;;;5.30;99.90;;;;;;4975317;28;20426;-72
2022/12/14 02:51:24;;;;;;;21.40;16.23;;;5.30;99.90;;;;;;4975604;28;20470;-74
2022/12/14 02:54:03;;;;;;;23.45;16.25;;;5.10;99.90;;;;;;4975667;28;20043;-76
2022/12/14 02:56:31;;;;;;;26.45;16.48;;;5.20;99.90;;;;;;5057053;22;20499;-71
2022/12/14 02:59:06;;;;;;;21.42;15.63;;;5.30;99.90;;;;;;5011313;28;20046;-74
2022/12/14 03:01:37;;;;;;;25.27;15.43;;;5.30;99.90;;;;;;5013720;28;20088;-71
2022/12/14 03:04:06;;;;;;;24.55;16.67;;;5.30;99.90;;;;;;5014294;28;20044;-73
2022/12/14 03:06:33;;;;;;;25.10;16.10;;;5.40;99.90;;;;;;4996149;28;20046;-73
2022/12/14 03:09:13;;;;;;;23.15;16.23;;;5.40;99.90;;;;;;5014161;28;20046;-71
2022/12/14 03:11:54;;;;;;;25.50;16.00;;;5.40;99.90;;;;;;4995895;28;20054;-71
2022/12/14 03:14:28;;;;;;;21.10;15.48;;;5.40;99.90;;;;;;4996347;28;20222;-73
2022/12/14 03:17:04;;;;;;;22.27;15.57;;;5.30;99.90;;;;;;5013350;28;20397;-76
2022/12/14 03:19:43;;;;;;;24.63;16.45;;;5.30;99.90;;;;;;5013679;28;20045;-72
2022/12/14 03:22:26;;;;;;;25.75;15.60;;;5.30;99.90;;;;;;4981191;28;20042;-75
2022/12/14 03:24:59;;;;;;;23.35;16.00;;;5.30;99.90;;;;;;4996368;28;20042;-72
2022/12/14 03:27:33;;;;;;;24.20;15.52;;;5.40;99.90;;;;;;4996241;28;20048;-71
2022/12/14 03:30:14;;;;;;;23.42;15.65;;;5.40;99.90;;;;;;5013398;28;20040;-72
2022/12/14 03:33:06;;;;;;;23.65;16.00;;;5.40;99.90;;;;;;4982516;28;20046;-72
2022/12/14 03:35:41;;;;;;;23.05;15.68;;;5.50;99.90;;;;;;5013446;28;20045;-73
2022/12/14 03:38:12;;;;;;;27.30;16.85;;;5.50;99.90;;;;;;4995801;28;20053;-73
2022/12/14 03:41:02;;;;;;;22.80;15.75;;;5.50;99.90;;;;;;4995723;28;20050;-72
2022/12/14 03:43:56;;;;;;;26.23;15.68;;;5.40;99.90;;;;;;5012305;28;20049;-74
2022/12/14 03:46:36;;;;;;;24.58;15.98;;;5.40;99.90;;;;;;5013098;28;20052;-73
2022/12/14 03:49:28;;;;;;;20.77;15.17;;;5.50;99.90;;;;;;5013221;28;20049;-74
2022/12/14 03:52:04;;;;;;;26.02;15.82;;;5.30;99.90;;;;;;5011516;28;20038;-74
2022/12/14 03:54:34;;;;;;;24.30;15.45;;;5.30;99.90;;;;;;5013042;28;20046;-71
2022/12/14 03:57:15;;;;;;;24.80;15.65;;;5.40;99.90;;;;;;5012812;28;20050;-74
2022/12/14 03:59:59;;;;;;;22.88;15.55;;;5.40;99.90;;;;;;5013298;28;20157;-74
2022/12/14 04:02:51;;;;;;;22.23;14.88;;;5.40;99.90;;;;;;5009635;28;20116;-75
2022/12/14 04:05:44;;;;;;;22.95;16.45;;;5.50;99.90;;;;;;5008936;28;20136;-73
2022/12/14 04:08:18;;;;;;;23.80;15.85;;;5.40;99.90;;;;;;5012304;28;20065;-76
2022/12/14 04:19:38;;;;;;;27.20;16.00;;;5.40;99.90;;;;;;5012305;28;20429;-75
2022/12/14 04:22:17;;;;;;;26.50;16.38;;;5.50;99.90;;;;;;5011925;28;20045;-69
2022/12/14 04:31:31;;;;;;;26.85;17.02;;;5.50;99.90;;;;;;4993069;28;20050;-74
2022/12/14 04:34:03;;;;;;;25.23;16.50;;;5.50;99.90;;;;;;4975608;28;20047;-73
2022/12/14 04:36:43;;;;;;;25.17;16.25;;;5.50;99.90;;;;;;4992804;28;20096;-73
2022/12/14 04:39:16;;;;;;;25.77;16.98;;;5.40;99.90;;;;;;4993144;28;20046;-77
2022/12/14 04:41:48;;;;;;;30.55;16.35;;;5.40;99.90;;;;;;4975156;28;20054;-75
2022/12/14 04:44:25;;;;;;;24.42;15.88;;;5.40;99.90;;;;;;4984551;28;20029;-74
2022/12/14 04:46:54;;;;;;;25.58;16.85;;;5.50;99.90;;;;;;4995161;28;20049;-73
2022/12/14 04:49:48;;;;;;;28.70;17.77;;;5.50;99.90;;;;;;4995298;28;20046;-71
2022/12/14 04:52:28;;;;;;;30.13;18.27;;;5.40;99.90;;;;;;4995258;28;20058;-70
2022/12/14 04:54:57;;;;;;;30.02;18.27;;;5.40;99.90;;;;;;5011392;28;20047;-71
2022/12/14 04:57:57;;;;;;;28.98;17.48;;;5.50;99.90;;;;;;5012184;28;20158;-71
2022/12/14 05:00:24;;;;;;;28.25;17.92;;;5.50;99.90;;;;;;4972933;28;20153;-72
2022/12/14 05:03:21;;;;;;;29.15;18.60;;;5.50;99.90;;;;;;4995066;28;20096;-74
2022/12/14 05:06:05;;;;;;;25.63;16.60;;;5.50;99.90;;;;;;4995280;28;20042;-72
2022/12/14 05:08:44;;;;;;;25.05;17.88;;;5.50;99.90;;;;;;4978952;28;20042;-73
2022/12/14 05:11:30;;;;;;;25.85;16.63;;;5.50;99.90;;;;;;4995382;28;20050;-74
2022/12/14 05:14:45;;;;;;;26.90;17.67;;;5.40;99.90;;;;;;5012604;28;20091;-74
2022/12/14 05:17:13;;;;;;;23.77;17.20;;;5.40;99.90;;;;;;5010946;28;20410;-73
2022/12/14 05:19:48;;;;;;;27.77;17.90;;;5.40;99.90;;;;;;5012612;28;20042;-73
2022/12/14 05:22:17;;;;;;;25.67;17.10;;;5.30;99.90;;;;;;5011063;28;20425;-72
2022/12/14 05:24:44;;;;;;;28.13;18.40;;;5.40;99.90;;;;;;5015101;28;20092;-73
2022/12/14 05:27:12;;;;;;;23.95;17.38;;;5.40;99.90;;;;;;4997989;28;20056;-70
2022/12/14 05:29:40;;;;;;;26.88;18.08;;;5.40;99.90;;;;;;5014768;28;20382;-74
2022/12/14 05:32:09;;;;;;;27.83;18.52;;;5.40;99.90;;;;;;5014356;28;20080;-72
2022/12/14 05:34:36;;;;;;;27.20;16.85;;;5.50;99.90;;;;;;4997931;28;20092;-74
2022/12/14 05:37:04;;;;;;;24.90;17.17;;;5.50;99.90;;;;;;4981415;28;20081;-72
2022/12/14 05:39:31;;;;;;;26.80;16.75;;;5.50;99.90;;;;;;5014306;28;20042;-73
2022/12/14 05:41:58;;;;;;;49.50;29.40;;;5.50;99.90;;;;;;5014668;28;20433;-70
2022/12/14 05:44:25;;;;;;;153.18;77.18;;;5.50;99.90;;;;;;5014569;28;20412;-74
2022/12/14 05:47:02;;;;;;;48.83;31.90;;;5.60;99.90;;;;;;5014844;28;20041;-71
2022/12/14 05:49:29;;;;;;;102.10;53.58;;;5.40;99.90;;;;;;5014247;28;20049;-71
2022/12/14 05:51:57;;;;;;;115.95;62.50;;;5.50;99.90;;;;;;5017125;28;20096;-71
2022/12/14 05:54:24;;;;;;;87.22;50.50;;;5.60;99.90;;;;;;5013959;28;20041;-73
2022/12/14 05:56:51;;;;;;;92.70;53.67;;;5.80;99.90;;;;;;5015144;28;20496;-71
2022/12/14 05:59:19;;;;;;;106.30;56.58;;;6.00;99.90;;;;;;5014116;28;20050;-72
2022/12/14 06:01:48;;;;;;;36.20;25.45;;;6.00;99.90;;;;;;5015088;28;20104;-72
2022/12/14 06:04:17;;;;;;;33.55;21.30;;;5.80;99.90;;;;;;4997224;28;20489;-70
2022/12/14 06:06:45;;;;;;;36.22;23.17;;;5.70;99.90;;;;;;4997740;22;21045;-72
2022/12/14 06:09:17;;;;;;;118.13;65.60;;;5.70;99.90;;;;;;5016938;28;20049;-72
2022/12/14 06:11:46;;;;;;;39.38;27.42;;;5.60;99.90;;;;;;5017625;28;20041;-73
2022/12/14 06:14:13;;;;;;;32.20;22.08;;;5.60;99.90;;;;;;5036269;28;20057;-71
2022/12/14 06:16:43;;;;;;;31.52;19.92;;;5.50;99.90;;;;;;5017181;28;20124;-73
2022/12/14 06:19:12;;;;;;;30.40;20.25;;;5.60;99.90;;;;;;5034586;28;20049;-73
2022/12/14 06:21:41;;;;;;;35.17;21.60;;;5.60;99.90;;;;;;5037616;28;20384;-73
2022/12/14 06:24:11;;;;;;;39.40;20.70;;;5.50;99.90;;;;;;5001247;28;20065;-75
2022/12/14 06:26:41;;;;;;;34.15;22.25;;;5.50;99.90;;;;;;5000560;28;20033;-74
2022/12/14 06:29:15;;;;;;;33.40;21.15;;;5.50;99.90;;;;;;5032462;28;20116;-74
2022/12/14 06:31:42;;;;;;;36.83;22.08;;;5.60;99.90;;;;;;5032181;28;20049;-72
2022/12/14 06:34:10;;;;;;;36.78;21.80;;;5.60;99.90;;;;;;4976241;28;20053;-76
2022/12/14 06:36:40;;;;;;;38.30;22.90;;;5.60;99.90;;;;;;4991119;28;20049;-71
2022/12/14 06:39:11;;;;;;;36.10;23.27;;;5.60;99.90;;;;;;5014258;28;20092;-71
2022/12/14 06:41:39;;;;;;;36.95;22.20;;;5.60;99.90;;;;;;5014772;28;20042;-75
2022/12/14 06:44:12;;;;;;;40.33;23.25;;;5.60;99.90;;;;;;5015088;28;20471;-76
2022/12/14 06:46:39;;;;;;;35.00;22.95;;;5.50;99.90;;;;;;5035826;23;20057;-78
2022/12/14 06:49:13;;;;;;;37.83;22.80;;;5.60;99.90;;;;;;5017269;28;20041;-73
2022/12/14 06:51:41;;;;;;;39.03;24.10;;;5.90;99.90;;;;;;5036149;28;20054;-73
2022/12/14 06:54:11;;;;;;;41.55;25.50;;;5.90;99.90;;;;;;5034255;28;20072;-76
2022/12/14 06:56:39;;;;;;;40.90;24.88;;;6.00;99.90;;;;;;5034239;28;20076;-73
2022/12/14 06:59:09;;;;;;;42.92;23.23;;;5.90;99.90;;;;;;5033948;28;20064;-74
2022/12/14 07:01:38;;;;;;;36.92;22.08;;;5.80;99.90;;;;;;5013388;28;20045;-72
2022/12/14 07:04:06;;;;;;;34.50;21.23;;;5.90;99.90;;;;;;4994893;28;20103;-71
2022/12/14 07:06:36;;;;;;;41.30;23.23;;;6.00;99.90;;;;;;5016255;28;20041;-71
2022/12/14 07:09:06;;;;;;;39.92;23.05;;;6.10;99.90;;;;;;5017213;28;20037;-75
2022/12/14 07:11:35;;;;;;;34.15;21.73;;;6.10;99.90;;;;;;5017125;28;20037;-73
2022/12/14 07:14:05;;;;;;;34.33;22.63;;;6.10;99.90;;;;;;5033847;28;20409;-76
2022/12/14 07:16:35;;;;;;;35.28;22.52;;;6.00;99.90;;;;;;5034050;28;20040;-73
2022/12/14 07:19:03;;;;;;;35.33;20.83;;;6.20;99.90;;;;;;5016321;28;20045;-73
2022/12/14 07:21:31;;;;;;;37.08;21.63;;;6.30;99.90;;;;;;4984294;28;20056;-76
2022/12/14 07:24:00;;;;;;;35.97;22.08;;;6.40;99.90;;;;;;5017064;28;20041;-74
2022/12/14 07:26:28;;;;;;;34.33;22.27;;;6.40;99.90;;;;;;5016839;28;20042;-73
2022/12/14 07:28:57;;;;;;;33.38;21.80;;;6.50;99.90;;;;;;5035053;28;20133;-74
2022/12/14 07:31:26;;;;;;;35.47;21.95;;;6.50;99.90;;;;;;5017253;28;20053;-76
2022/12/14 07:33:55;;;;;;;40.78;23.50;;;6.50;99.90;;;;;;5017402;28;20056;-77
2022/12/14 07:36:25;;;;;;;37.88;23.23;;;6.50;99.90;;;;;;5034563;28;20045;-76
2022/12/14 07:38:54;;;;;;;39.90;22.25;;;6.40;99.90;;;;;;5036100;28;20081;-75
2022/12/14 07:41:29;;;;;;;37.17;22.33;;;6.30;99.90;;;;;;5033661;28;20073;-74
2022/12/14 07:43:59;;;;;;;47.63;23.48;;;6.30;99.90;;;;;;5035232;28;20132;-76
2022/12/14 07:46:27;;;;;;;36.60;22.23;;;6.10;99.90;;;;;;5032763;28;20054;-78
2022/12/14 07:48:56;;;;;;;38.67;22.23;;;6.10;99.90;;;;;;5034418;28;20045;-74
2022/12/14 07:51:27;;;;;;;37.47;23.35;;;5.90;99.90;;;;;;5034473;28;20037;-74
2022/12/14 07:53:55;;;;;;;39.15;23.40;;;6.00;99.90;;;;;;5034526;28;20045;-73
2022/12/14 07:56:24;;;;;;;39.08;24.38;;;6.10;99.90;;;;;;5015215;28;20099;-74
2022/12/14 07:58:55;;;;;;;44.22;26.58;;;6.20;99.90;;;;;;5033328;28;20049;-74
2022/12/14 08:01:32;;;;;;;40.05;27.08;;;6.30;99.90;;;;;;5006996;23;20133;-74
2022/12/14 08:04:07;;;;;;;43.45;26.27;;;6.20;99.90;;;;;;4996888;28;20042;-74
2022/12/14 08:06:40;;;;;;;43.92;26.63;;;6.30;99.90;;;;;;4979883;28;20041;-74
2022/12/14 08:09:12;;;;;;;40.55;25.35;;;6.30;99.90;;;;;;4996444;28;20038;-77
2022/12/14 08:11:40;;;;;;;41.10;25.10;;;6.40;99.90;;;;;;4997718;28;20054;-76
2022/12/14 08:14:16;;;;;;;39.72;25.27;;;6.40;99.90;;;;;;5015447;28;20422;-74
2022/12/14 08:16:45;;;;;;;44.25;25.33;;;6.50;99.90;;;;;;5015779;28;20463;-75
2022/12/14 08:19:13;;;;;;;39.88;26.08;;;6.60;99.90;;;;;;5016136;28;20077;-79
2022/12/14 08:21:41;;;;;;;43.17;25.08;;;6.60;99.90;;;;;;5017127;28;20048;-74
2022/12/14 08:24:12;;;;;;;44.10;26.23;;;6.60;99.90;;;;;;5018758;28;20045;-78
2022/12/14 08:26:40;;;;;;;39.40;25.02;;;6.50;99.90;;;;;;5015465;28;20115;-73
2022/12/14 08:29:11;;;;;;;38.75;25.70;;;6.60;99.90;;;;;;5017999;28;20046;-76
2022/12/14 08:31:39;;;;;;;42.03;25.63;;;6.70;99.90;;;;;;5014357;28;20462;-74
2022/12/14 08:34:06;;;;;;;39.17;23.98;;;6.80;99.90;;;;;;5016268;28;20061;-75
2022/12/14 08:36:33;;;;;;;38.58;24.00;;;6.90;99.90;;;;;;4996780;28;20080;-75
2022/12/14 08:39:03;;;;;;;36.03;23.52;;;7.00;99.90;;;;;;5013359;28;20116;-75
2022/12/14 08:41:30;;;;;;;40.30;24.27;;;6.90;99.90;;;;;;5013804;28;20457;-75
2022/12/14 08:43:59;;;;;;;38.95;25.33;;;7.00;99.90;;;;;;5013906;28;20042;-73
2022/12/14 08:46:31;;;;;;;39.47;25.23;;;7.10;99.90;;;;;;5014337;28;20069;-79
2022/12/14 08:48:59;;;;;;;38.20;22.88;;;7.20;99.90;;;;;;5014946;28;20046;-75
2022/12/14 08:51:27;;;;;;;42.22;25.17;;;7.20;99.90;;;;;;5013758;28;20117;-76
2022/12/14 08:53:56;;;;;;;36.97;23.48;;;7.10;99.90;;;;;;5015392;28;20404;-76
2022/12/14 08:56:25;;;;;;;35.15;23.40;;;7.10;99.90;;;;;;5013099;28;20484;-72
2022/12/14 08:58:52;;;;;;;49.50;25.27;;;7.20;99.90;;;;;;5017151;28;20117;-74
2022/12/14 09:01:28;;;;;;;39.72;24.95;;;7.30;99.90;;;;;;5017915;28;20077;-70
2022/12/14 09:04:02;;;;;;;44.83;26.05;;;7.30;99.90;;;;;;4983256;28;20394;-72
2022/12/14 09:06:32;;;;;;;41.38;26.85;;;7.40;99.90;;;;;;5015715;28;20042;-72
2022/12/14 09:08:59;;;;;;;44.67;27.63;;;7.50;99.90;;;;;;5016249;28;20413;-74
2022/12/14 09:11:28;;;;;;;46.00;28.00;;;7.30;99.90;;;;;;5016216;28;20389;-73
2022/12/14 09:13:55;;;;;;;46.45;28.60;;;7.10;99.90;;;;;;5015349;28;20509;-73
2022/12/14 09:16:27;;;;;;;40.25;27.00;;;7.20;99.90;;;;;;4999050;28;20057;-74
2022/12/14 09:18:55;;;;;;;49.40;27.20;;;7.40;99.90;;;;;;5016694;28;20037;-73
2022/12/14 09:21:23;;;;;;;48.55;28.00;;;7.50;99.90;;;;;;5017115;28;20114;-73
2022/12/14 09:23:51;;;;;;;41.85;27.33;;;7.50;99.90;;;;;;4998644;28;20082;-72
2022/12/14 09:26:25;;;;;;;42.92;26.33;;;7.60;99.90;;;;;;5015940;28;20053;-71
2022/12/14 09:28:54;;;;;;;47.13;27.83;;;7.50;99.90;;;;;;5016134;28;20103;-73
2022/12/14 09:31:24;;;;;;;48.28;27.30;;;7.50;99.90;;;;;;5016212;28;20426;-71
2022/12/14 09:33:53;;;;;;;45.17;27.45;;;7.50;99.90;;;;;;4997870;28;20120;-69
2022/12/14 09:36:23;;;;;;;42.72;28.42;;;7.50;99.90;;;;;;5014280;28;20069;-71
2022/12/14 09:38:54;;;;;;;46.08;26.85;;;7.40;99.90;;;;;;5016163;28;20092;-73
2022/12/14 09:41:29;;;;;;;;;;;7.50;99.90;;;;;;5014835;28;20041;-73
2022/12/14 09:44:25;;;;;;;50.63;27.95;;;7.60;99.90;;;;;;5015988;28;20269;-70
2022/12/14 09:47:04;;;;;;;51.42;29.25;;;7.70;99.90;;;;;;5009188;28;20469;-73
2022/12/14 09:49:41;;;;;;;47.25;28.58;;;7.70;99.90;;;;;;4998032;28;20501;-71
2022/12/14 09:52:15;;;;;;;49.85;29.98;;;7.70;99.90;;;;;;5030267;28;20088;-72
2022/12/14 09:54:44;;;;;;;50.00;28.95;;;7.70;99.90;;;;;;5014233;28;20100;-71
2022/12/14 09:57:42;;;;;;;44.15;27.33;;;7.50;99.90;;;;;;5015406;28;20054;-71
2022/12/14 10:00:17;;;;;;;48.03;26.70;;;7.60;99.90;;;;;;5013805;28;20456;-71
2022/12/14 10:03:08;;;;;;;41.40;26.60;;;7.60;99.90;;;;;;5012911;28;20104;-73
2022/12/14 10:06:08;;;;;;;44.92;26.42;;;7.50;99.90;;;;;;5011259;28;20402;-75
2022/12/14 10:08:49;;;;;;;44.10;26.10;;;7.70;99.90;;;;;;4995846;28;20042;-71
2022/12/14 10:11:43;;;;;;;38.95;24.63;;;7.40;99.90;;;;;;4965890;28;20050;-71
2022/12/14 10:14:22;;;;;;;45.63;26.58;;;7.20;99.90;;;;;;5015560;28;20042;-71
2022/12/14 10:16:49;;;;;;;47.08;26.50;;;7.30;99.90;;;;;;5012217;28;20045;-73
2022/12/14 10:19:36;;;;;;;44.67;25.85;;;7.20;99.90;;;;;;5014632;28;20042;-71
2022/12/14 10:22:08;;;;;;;46.08;26.35;;;7.40;99.90;;;;;;5013685;28;20044;-73
2022/12/14 10:24:51;;;;;;;42.75;23.98;;;7.50;99.90;;;;;;5014602;28;20372;-74
2022/12/14 10:27:24;;;;;;;42.33;25.15;;;7.80;99.90;;;;;;5015085;28;20440;-74
2022/12/14 10:30:05;;;;;;;43.10;24.30;;;7.90;99.90;;;;;;5015029;28;20041;-73
2022/12/14 10:32:44;;;;;;;42.75;24.83;;;8.10;99.90;;;;;;5015220;28;20073;-71
2022/12/14 10:35:14;;;;;;;33.83;22.58;;;8.00;99.90;;;;;;5013523;28;20057;-71
2022/12/14 10:38:03;;;;;;;38.50;22.85;;;8.10;99.90;;;;;;5013811;28;20128;-72
2022/12/14 10:40:32;;;;;;;36.47;23.55;;;7.70;99.90;;;;;;5002239;28;20421;-71
2022/12/14 10:43:14;;;;;;;41.30;24.10;;;7.80;99.90;;;;;;4994516;28;20588;-69
2022/12/14 10:45:41;;;;;;;40.42;23.13;;;7.70;99.90;;;;;;5015507;28;20405;-70
2022/12/14 10:48:38;;;;;;;45.47;27.80;;;7.60;99.90;;;;;;5013581;28;20104;-73
2022/12/14 10:51:20;;;;;;;34.78;23.10;;;7.90;99.90;;;;;;5024736;28;20059;-71
2022/12/14 10:54:09;;;;;;;38.60;22.45;;;7.80;99.90;;;;;;5034699;28;20045;-74
2022/12/14 10:56:40;;;;;;;36.72;21.42;;;7.90;99.90;;;;;;5032995;28;20103;-70
2022/12/14 10:59:10;;;;;;;39.53;22.58;;;7.90;99.90;;;;;;5016247;28;20041;-72
2022/12/14 11:01:38;;;;;;;41.33;23.90;;;7.90;99.90;;;;;;5016399;28;20053;-74
2022/12/14 11:04:19;;;;;;;37.67;24.35;;;7.90;99.90;;;;;;5021605;28;20521;-73
2022/12/14 11:06:46;;;;;;;37.95;23.33;;;7.90;99.90;;;;;;5013861;28;20132;-73
2022/12/14 11:09:21;;;;;;;38.20;23.27;;;7.80;99.90;;;;;;5014324;28;20038;-71
2022/12/14 11:12:14;;;;;;;46.67;23.85;;;7.60;99.90;;;;;;5014112;28;20050;-74
2022/12/14 11:14:53;;;;;;;32.28;21.83;;;7.50;99.90;;;;;;5013916;28;20073;-73
2022/12/14 11:17:31;;;;;;;40.78;22.40;;;7.70;99.90;;;;;;5013471;28;20053;-74
2022/12/14 11:20:15;;;;;;;38.90;23.98;;;7.80;99.90;;;;;;5013790;28;20046;-73
2022/12/14 11:22:52;;;;;;;35.42;21.52;;;8.00;99.90;;;;;;5012713;28;20049;-71
2022/12/14 11:25:41;;;;;;;41.00;23.65;;;7.70;99.90;;;;;;5013933;28;20049;-71
2022/12/14 11:28:39;;;;;;;42.00;25.92;;;7.60;99.90;;;;;;5013938;28;20402;-72
2022/12/14 11:31:22;;;;;;;36.35;21.83;;;7.90;99.90;;;;;;4996532;28;20112;-69
2022/12/14 11:33:55;;;;;;;39.30;22.55;;;8.10;99.90;;;;;;5013729;28;20038;-74
2022/12/14 11:36:40;;;;;;;38.90;23.38;;;8.10;99.90;;;;;;4996979;28;20430;-71
2022/12/14 11:39:14;;;;;;;37.50;22.85;;;8.10;99.90;;;;;;5014069;28;20069;-73
2022/12/14 11:41:45;;;;;;;38.13;22.50;;;8.00;99.90;;;;;;4997257;28;20482;-73
2022/12/14 11:44:15;;;;;;;40.47;23.90;;;8.00;99.90;;;;;;4996390;28;20096;-71
2022/12/14 11:46:58;;;;;;;38.33;21.83;;;7.90;99.90;;;;;;5013952;28;20710;-74
2022/12/14 11:49:38;;;;;;;39.50;22.23;;;8.00;99.90;;;;;;4995905;28;20046;-72
2022/12/14 11:52:08;;;;;;;35.38;20.80;;;7.90;99.90;;;;;;5013588;28;20046;-71
2022/12/14 11:54:41;;;;;;;36.75;21.85;;;7.70;99.90;;;;;;5013607;28;20057;-71
2022/12/14 11:57:23;;;;;;;40.47;22.63;;;7.70;99.90;;;;;;5013831;28;20052;-69
2022/12/14 12:00:00;;;;;;;34.65;20.23;;;7.70;99.90;;;;;;5013653;28;20085;-68
2022/12/14 12:02:31;;;;;;;35.97;21.05;;;7.40;99.90;;;;;;4996099;28;20100;-70
2022/12/14 12:05:19;;;;;;;37.83;21.20;;;7.50;99.90;;;;;;5013554;28;20080;-74
2022/12/14 12:07:50;;;;;;;33.38;20.42;;;7.60;99.90;;;;;;4996853;28;20042;-75
2022/12/14 12:10:43;;;;;;;36.13;19.70;;;7.40;99.90;;;;;;5013737;28;20092;-73
2022/12/14 12:13:21;;;;;;;34.10;19.55;;;7.00;99.90;;;;;;4996395;28;20144;-71
2022/12/14 12:15:55;;;;;;;31.23;19.45;;;7.10;99.90;;;;;;4996229;28;20041;-74
2022/12/14 12:18:47;;;;;;;30.83;19.73;;;7.00;99.90;;;;;;5013204;28;20049;-69
2022/12/14 12:21:25;;;;;;;33.47;19.75;;;7.00;99.90;;;;;;5013124;28;20367;-70
2022/12/14 12:23:57;;;;;;;32.97;20.27;;;6.80;99.90;;;;;;5013673;28;20450;-71
2022/12/14 12:26:27;;;;;;;34.17;20.85;;;6.80;99.90;;;;;;4995537;28;20037;-72
2022/12/14 12:29:03;;;;;;;32.25;20.30;;;7.10;99.90;;;;;;5013409;28;20069;-74
2022/12/14 12:31:42;;;;;;;32.67;19.75;;;7.30;99.90;;;;;;5013282;28;20100;-73
2022/12/14 12:34:17;;;;;;;36.30;20.92;;;7.30;99.90;;;;;;5035929;23;20075;-75
2022/12/14 12:36:46;;;;;;;30.90;19.63;;;7.30;99.90;;;;;;5015176;28;20034;-70
2022/12/14 12:39:35;;;;;;;32.63;20.17;;;7.20;99.90;;;;;;5031788;28;20546;-74
2022/12/14 12:42:29;;;;;;;37.00;19.98;;;7.30;99.90;;;;;;5015359;28;20076;-73
2022/12/14 12:45:28;;;;;;;31.27;20.00;;;7.30;99.90;;;;;;5015238;28;20069;-72
2022/12/14 12:48:03;;;;;;;35.15;19.95;;;7.40;99.90;;;;;;5031573;28;20358;-71
2022/12/14 12:50:38;;;;;;;32.42;19.88;;;7.10;99.90;;;;;;5031670;28;20049;-73
2022/12/14 12:53:32;;;;;;;36.55;22.10;;;7.20;99.90;;;;;;5015698;28;20033;-73
2022/12/14 12:56:49;;;;;;;35.22;21.25;;;7.10;99.90;;;;;;5032476;28;20046;-73
2022/12/14 12:59:19;;;;;;;33.40;19.17;;;7.10;99.90;;;;;;4972201;28;20042;-76
2022/12/14 13:01:50;;;;;;;;;;;6.90;99.90;;;;;;5028967;28;20461;-75
2022/12/14 13:04:39;;;;;;;34.30;19.67;;;7.00;99.90;;;;;;5031040;28;19978;-72
2022/12/14 13:07:42;;;;;;;29.65;19.25;;;7.00;99.90;;;;;;5014866;28;20050;-71
2022/12/14 13:10:40;;;;;;;35.53;20.00;;;7.20;99.90;;;;;;5030227;28;20080;-72
2022/12/14 13:13:31;;;;;;;30.67;19.70;;;7.30;99.90;;;;;;5032275;28;20045;-70
2022/12/14 13:16:13;;;;;;;35.80;20.08;;;7.30;99.90;;;;;;5032124;28;20423;-73
2022/12/14 13:18:47;;;;;;;32.28;19.85;;;7.30;99.90;;;;;;5039377;23;20088;-70
2022/12/14 13:21:41;;;;;;;31.23;19.88;;;7.40;99.90;;;;;;5032686;28;20115;-68
2022/12/14 13:24:16;;;;;;;36.53;20.55;;;7.30;99.90;;;;;;5030692;28;20132;-74
2022/12/14 13:26:53;;;;;;;37.35;21.02;;;7.30;99.90;;;;;;5032517;28;20061;-75
2022/12/14 13:29:46;;;;;;;32.08;20.58;;;7.30;99.90;;;;;;5032670;28;20409;-71
2022/12/14 13:32:16;;;;;;;33.67;20.77;;;7.30;99.90;;;;;;5032396;28;20105;-73